Terminal Aerodrome Forecast
Issued by NWS

Home | Current Version | Previous Version | Text Only | Print | Product List | Glossary On
Versions: 1 2 3 4 5 6 7 8 9 10 11 12 13
709
FTUS44 KJAN 290546
TAFGTR
TAF
KGTR 290546Z 2906/3006 VRB04KT P6SM SCT035 BKN050
     FM291100 12004KT 6SM BR SCT007 BKN015
     FM291500 17011G18KT P6SM SCT040=

USA.gov is the U.S. government's official web portal to all federal, state and local government web resources and services.